sensor_id;sensor_type;location;lat;lon;timestamp;P1;durP1;ratioP1;P2;durP2;ratioP2
59607;SDS011;45426;44.726;10.390;2023-12-04T00:01:46;22.38;;;12.00;;
59607;SDS011;45426;44.726;10.390;2023-12-04T00:06:38;22.75;;;11.52;;
59607;SDS011;45426;44.726;10.390;2023-12-04T00:09:03;21.15;;;11.60;;
59607;SDS011;45426;44.726;10.390;2023-12-04T00:11:29;22.20;;;12.35;;
59607;SDS011;45426;44.726;10.390;2023-12-04T00:13:54;20.08;;;12.30;;
59607;SDS011;45426;44.726;10.390;2023-12-04T00:16:20;23.45;;;12.20;;
59607;SDS011;45426;44.726;10.390;2023-12-04T00:18:45;22.27;;;12.00;;
59607;SDS011;45426;44.726;10.390;2023-12-04T00:21:10;22.85;;;11.77;;
59607;SDS011;45426;44.726;10.390;2023-12-04T00:23:37;22.40;;;11.40;;
59607;SDS011;45426;44.726;10.390;2023-12-04T00:26:03;21.70;;;11.32;;
59607;SDS011;45426;44.726;10.390;2023-12-04T00:28:29;19.88;;;11.00;;
59607;SDS011;45426;44.726;10.390;2023-12-04T00:30:54;21.10;;;11.85;;
59607;SDS011;45426;44.726;10.390;2023-12-04T00:33:20;24.60;;;12.05;;
59607;SDS011;45426;44.726;10.390;2023-12-04T00:35:45;22.75;;;12.18;;
59607;SDS011;45426;44.726;10.390;2023-12-04T00:38:11;24.60;;;12.48;;
59607;SDS011;45426;44.726;10.390;2023-12-04T00:40:36;21.70;;;11.65;;
59607;SDS011;45426;44.726;10.390;2023-12-04T00:43:01;21.17;;;11.32;;
59607;SDS011;45426;44.726;10.390;2023-12-04T00:45:27;22.40;;;11.32;;
59607;SDS011;45426;44.726;10.390;2023-12-04T00:47:52;24.23;;;12.10;;
59607;SDS011;45426;44.726;10.390;2023-12-04T00:50:18;23.42;;;12.00;;
59607;SDS011;45426;44.726;10.390;2023-12-04T00:52:43;22.30;;;11.90;;
59607;SDS011;45426;44.726;10.390;2023-12-04T00:55:09;21.15;;;11.25;;
59607;SDS011;45426;44.726;10.390;2023-12-04T00:57:34;19.02;;;10.77;;
59607;SDS011;45426;44.726;10.390;2023-12-04T01:00:00;20.15;;;11.30;;
59607;SDS011;45426;44.726;10.390;2023-12-04T01:02:25;20.20;;;11.15;;
59607;SDS011;45426;44.726;10.390;2023-12-04T01:04:50;20.83;;;10.90;;
59607;SDS011;45426;44.726;10.390;2023-12-04T01:07:16;21.85;;;10.75;;
59607;SDS011;45426;44.726;10.390;2023-12-04T01:09:41;21.35;;;11.48;;
59607;SDS011;45426;44.726;10.390;2023-12-04T01:12:07;21.40;;;11.70;;
59607;SDS011;45426;44.726;10.390;2023-12-04T01:14:32;20.80;;;11.13;;
59607;SDS011;45426;44.726;10.390;2023-12-04T01:16:58;19.98;;;11.30;;
59607;SDS011;45426;44.726;10.390;2023-12-04T01:19:23;24.77;;;11.10;;
59607;SDS011;45426;44.726;10.390;2023-12-04T01:21:49;20.55;;;10.85;;
59607;SDS011;45426;44.726;10.390;2023-12-04T01:24:14;22.35;;;11.55;;
59607;SDS011;45426;44.726;10.390;2023-12-04T01:26:40;22.25;;;11.65;;
59607;SDS011;45426;44.726;10.390;2023-12-04T01:29:06;21.35;;;11.30;;
59607;SDS011;45426;44.726;10.390;2023-12-04T01:31:31;22.90;;;11.50;;
59607;SDS011;45426;44.726;10.390;2023-12-04T01:33:57;20.60;;;10.80;;
59607;SDS011;45426;44.726;10.390;2023-12-04T01:36:22;19.95;;;11.90;;
59607;SDS011;45426;44.726;10.390;2023-12-04T01:38:48;21.60;;;10.75;;
59607;SDS011;45426;44.726;10.390;2023-12-04T01:41:13;22.13;;;11.27;;
59607;SDS011;45426;44.726;10.390;2023-12-04T01:43:39;21.80;;;12.13;;
59607;SDS011;45426;44.726;10.390;2023-12-04T01:46:04;22.80;;;11.43;;
59607;SDS011;45426;44.726;10.390;2023-12-04T01:48:31;20.83;;;11.57;;
59607;SDS011;45426;44.726;10.390;2023-12-04T01:50:57;23.45;;;12.35;;
59607;SDS011;45426;44.726;10.390;2023-12-04T01:53:25;20.77;;;11.07;;
59607;SDS011;45426;44.726;10.390;2023-12-04T01:55:51;22.17;;;11.73;;
59607;SDS011;45426;44.726;10.390;2023-12-04T01:58:16;22.00;;;11.13;;
59607;SDS011;45426;44.726;10.390;2023-12-04T02:00:42;22.25;;;11.13;;
59607;SDS011;45426;44.726;10.390;2023-12-04T02:03:08;22.10;;;12.40;;
59607;SDS011;45426;44.726;10.390;2023-12-04T02:05:34;25.17;;;11.85;;
59607;SDS011;45426;44.726;10.390;2023-12-04T02:08:01;20.48;;;12.10;;
59607;SDS011;45426;44.726;10.390;2023-12-04T02:10:28;24.75;;;12.10;;
59607;SDS011;45426;44.726;10.390;2023-12-04T02:12:54;22.58;;;11.85;;
59607;SDS011;45426;44.726;10.390;2023-12-04T02:15:20;24.60;;;12.65;;
59607;SDS011;45426;44.726;10.390;2023-12-04T02:17:45;21.80;;;12.13;;
59607;SDS011;45426;44.726;10.390;2023-12-04T02:20:14;20.88;;;10.90;;
59607;SDS011;45426;44.726;10.390;2023-12-04T02:22:40;19.23;;;11.20;;
59607;SDS011;45426;44.726;10.390;2023-12-04T02:25:06;23.05;;;12.63;;
59607;SDS011;45426;44.726;10.390;2023-12-04T02:28:07;21.10;;;10.82;;
59607;SDS011;45426;44.726;10.390;2023-12-04T02:30:26;23.30;;;11.70;;
59607;SDS011;45426;44.726;10.390;2023-12-04T02:32:55;19.60;;;10.30;;
59607;SDS011;45426;44.726;10.390;2023-12-04T02:35:24;21.65;;;10.65;;
59607;SDS011;45426;44.726;10.390;2023-12-04T02:37:54;21.02;;;10.35;;
59607;SDS011;45426;44.726;10.390;2023-12-04T02:40:20;24.33;;;10.55;;
59607;SDS011;45426;44.726;10.390;2023-12-04T02:42:46;21.63;;;10.88;;
59607;SDS011;45426;44.726;10.390;2023-12-04T02:45:12;24.05;;;11.50;;
59607;SDS011;45426;44.726;10.390;2023-12-04T02:47:37;22.35;;;11.45;;
59607;SDS011;45426;44.726;10.390;2023-12-04T02:50:05;23.48;;;11.73;;
59607;SDS011;45426;44.726;10.390;2023-12-04T02:52:31;18.58;;;10.77;;
59607;SDS011;45426;44.726;10.390;2023-12-04T02:54:56;20.77;;;11.65;;
59607;SDS011;45426;44.726;10.390;2023-12-04T02:57:22;22.33;;;11.70;;
59607;SDS011;45426;44.726;10.390;2023-12-04T02:59:48;23.35;;;12.10;;
59607;SDS011;45426;44.726;10.390;2023-12-04T03:02:13;21.85;;;12.20;;
59607;SDS011;45426;44.726;10.390;2023-12-04T03:04:39;23.35;;;11.48;;
59607;SDS011;45426;44.726;10.390;2023-12-04T03:07:04;19.25;;;10.63;;
59607;SDS011;45426;44.726;10.390;2023-12-04T03:09:30;20.00;;;11.43;;
59607;SDS011;45426;44.726;10.390;2023-12-04T03:11:55;21.38;;;10.90;;
59607;SDS011;45426;44.726;10.390;2023-12-04T03:14:21;20.77;;;11.50;;
59607;SDS011;45426;44.726;10.390;2023-12-04T03:16:46;22.73;;;11.77;;
59607;SDS011;45426;44.726;10.390;2023-12-04T03:19:11;19.83;;;10.73;;
59607;SDS011;45426;44.726;10.390;2023-12-04T03:21:37;22.25;;;11.68;;
59607;SDS011;45426;44.726;10.390;2023-12-04T03:24:02;19.35;;;10.65;;
59607;SDS011;45426;44.726;10.390;2023-12-04T03:26:28;19.42;;;10.43;;
59607;SDS011;45426;44.726;10.390;2023-12-04T03:28:53;19.88;;;10.88;;
59607;SDS011;45426;44.726;10.390;2023-12-04T03:31:19;20.08;;;9.93;;
59607;SDS011;45426;44.726;10.390;2023-12-04T03:33:45;19.48;;;11.00;;
59607;SDS011;45426;44.726;10.390;2023-12-04T03:36:10;20.98;;;11.02;;
59607;SDS011;45426;44.726;10.390;2023-12-04T03:38:35;21.20;;;11.15;;
59607;SDS011;45426;44.726;10.390;2023-12-04T03:41:01;20.10;;;10.95;;
59607;SDS011;45426;44.726;10.390;2023-12-04T03:43:26;21.20;;;10.48;;
59607;SDS011;45426;44.726;10.390;2023-12-04T03:45:52;20.05;;;10.55;;
59607;SDS011;45426;44.726;10.390;2023-12-04T03:48:17;19.63;;;11.25;;
59607;SDS011;45426;44.726;10.390;2023-12-04T03:50:43;22.45;;;10.90;;
59607;SDS011;45426;44.726;10.390;2023-12-04T03:53:08;22.35;;;11.52;;
59607;SDS011;45426;44.726;10.390;2023-12-04T03:55:33;21.85;;;11.60;;
59607;SDS011;45426;44.726;10.390;2023-12-04T03:57:59;25.75;;;12.38;;
59607;SDS011;45426;44.726;10.390;2023-12-04T04:00:24;19.88;;;10.63;;
59607;SDS011;45426;44.726;10.390;2023-12-04T04:02:50;21.52;;;11.32;;
59607;SDS011;45426;44.726;10.390;2023-12-04T04:05:15;22.17;;;11.27;;
59607;SDS011;45426;44.726;10.390;2023-12-04T04:07:41;21.90;;;11.82;;
59607;SDS011;45426;44.726;10.390;2023-12-04T04:10:07;23.58;;;12.10;;
59607;SDS011;45426;44.726;10.390;2023-12-04T04:12:33;20.48;;;11.40;;
59607;SDS011;45426;44.726;10.390;2023-12-04T04:14:58;20.83;;;10.65;;
59607;SDS011;45426;44.726;10.390;2023-12-04T04:17:24;21.25;;;10.40;;
59607;SDS011;45426;44.726;10.390;2023-12-04T04:19:52;19.95;;;10.93;;
59607;SDS011;45426;44.726;10.390;2023-12-04T04:22:18;18.85;;;10.52;;
59607;SDS011;45426;44.726;10.390;2023-12-04T04:24:47;21.95;;;11.10;;
59607;SDS011;45426;44.726;10.390;2023-12-04T04:27:13;23.02;;;11.75;;
59607;SDS011;45426;44.726;10.390;2023-12-04T04:29:39;19.77;;;10.10;;
59607;SDS011;45426;44.726;10.390;2023-12-04T04:32:04;23.30;;;11.07;;
59607;SDS011;45426;44.726;10.390;2023-12-04T04:34:30;21.70;;;12.00;;
59607;SDS011;45426;44.726;10.390;2023-12-04T04:36:55;21.45;;;11.15;;
59607;SDS011;45426;44.726;10.390;2023-12-04T04:39:21;23.83;;;12.15;;
59607;SDS011;45426;44.726;10.390;2023-12-04T04:41:46;22.25;;;11.65;;
59607;SDS011;45426;44.726;10.390;2023-12-04T04:44:12;27.42;;;12.48;;
59607;SDS011;45426;44.726;10.390;2023-12-04T04:46:37;21.30;;;11.07;;
59607;SDS011;45426;44.726;10.390;2023-12-04T04:49:02;23.50;;;11.10;;
59607;SDS011;45426;44.726;10.390;2023-12-04T04:51:31;19.83;;;11.02;;
59607;SDS011;45426;44.726;10.390;2023-12-04T04:53:57;21.77;;;11.77;;
59607;SDS011;45426;44.726;10.390;2023-12-04T04:56:23;21.33;;;11.48;;
59607;SDS011;45426;44.726;10.390;2023-12-04T04:58:48;22.60;;;11.63;;
59607;SDS011;45426;44.726;10.390;2023-12-04T05:01:14;21.40;;;11.77;;
59607;SDS011;45426;44.726;10.390;2023-12-04T05:03:39;22.55;;;10.98;;
59607;SDS011;45426;44.726;10.390;2023-12-04T05:06:05;24.08;;;12.07;;
59607;SDS011;45426;44.726;10.390;2023-12-04T05:08:30;23.83;;;11.73;;
59607;SDS011;45426;44.726;10.390;2023-12-04T05:10:56;22.20;;;11.45;;
59607;SDS011;45426;44.726;10.390;2023-12-04T05:13:21;21.95;;;12.00;;
59607;SDS011;45426;44.726;10.390;2023-12-04T05:15:47;23.25;;;11.45;;
59607;SDS011;45426;44.726;10.390;2023-12-04T05:18:12;21.15;;;11.30;;
59607;SDS011;45426;44.726;10.390;2023-12-04T05:20:37;20.88;;;11.30;;
59607;SDS011;45426;44.726;10.390;2023-12-04T05:23:03;25.48;;;13.50;;
59607;SDS011;45426;44.726;10.390;2023-12-04T05:25:28;24.98;;;12.38;;
59607;SDS011;45426;44.726;10.390;2023-12-04T05:27:54;24.25;;;11.95;;
59607;SDS011;45426;44.726;10.390;2023-12-04T05:30:19;23.58;;;11.93;;
59607;SDS011;45426;44.726;10.390;2023-12-04T05:32:45;23.27;;;12.27;;
59607;SDS011;45426;44.726;10.390;2023-12-04T05:35:10;26.45;;;12.60;;
59607;SDS011;45426;44.726;10.390;2023-12-04T05:37:36;26.35;;;13.02;;
59607;SDS011;45426;44.726;10.390;2023-12-04T05:40:01;27.70;;;13.18;;
59607;SDS011;45426;44.726;10.390;2023-12-04T05:42:28;25.92;;;12.15;;
59607;SDS011;45426;44.726;10.390;2023-12-04T05:44:53;24.38;;;12.57;;
59607;SDS011;45426;44.726;10.390;2023-12-04T05:47:20;22.08;;;11.80;;
59607;SDS011;45426;44.726;10.390;2023-12-04T05:49:46;25.67;;;12.60;;
59607;SDS011;45426;44.726;10.390;2023-12-04T05:52:12;24.10;;;12.48;;
59607;SDS011;45426;44.726;10.390;2023-12-04T05:54:37;23.25;;;11.98;;
59607;SDS011;45426;44.726;10.390;2023-12-04T05:57:03;24.88;;;12.70;;
59607;SDS011;45426;44.726;10.390;2023-12-04T05:59:28;24.70;;;12.77;;
59607;SDS011;45426;44.726;10.390;2023-12-04T06:01:53;25.17;;;12.50;;
59607;SDS011;45426;44.726;10.390;2023-12-04T06:04:19;21.13;;;11.50;;
59607;SDS011;45426;44.726;10.390;2023-12-04T06:06:44;24.15;;;12.35;;
59607;SDS011;45426;44.726;10.390;2023-12-04T06:09:10;24.17;;;11.63;;
59607;SDS011;45426;44.726;10.390;2023-12-04T06:11:35;23.67;;;11.73;;
59607;SDS011;45426;44.726;10.390;2023-12-04T06:14:01;23.83;;;12.15;;
59607;SDS011;45426;44.726;10.390;2023-12-04T06:16:26;23.67;;;12.48;;
59607;SDS011;45426;44.726;10.390;2023-12-04T06:18:52;24.45;;;12.45;;
59607;SDS011;45426;44.726;10.390;2023-12-04T06:21:17;25.40;;;12.63;;
59607;SDS011;45426;44.726;10.390;2023-12-04T06:23:43;23.85;;;11.63;;
59607;SDS011;45426;44.726;10.390;2023-12-04T06:26:10;23.52;;;12.52;;
59607;SDS011;45426;44.726;10.390;2023-12-04T06:28:37;23.70;;;12.90;;
59607;SDS011;45426;44.726;10.390;2023-12-04T06:31:03;24.88;;;12.70;;
59607;SDS011;45426;44.726;10.390;2023-12-04T06:33:29;24.42;;;11.75;;
59607;SDS011;45426;44.726;10.390;2023-12-04T06:35:55;25.63;;;12.57;;
59607;SDS011;45426;44.726;10.390;2023-12-04T06:38:20;22.65;;;11.43;;
59607;SDS011;45426;44.726;10.390;2023-12-04T06:40:50;22.50;;;11.27;;
59607;SDS011;45426;44.726;10.390;2023-12-04T06:43:15;23.23;;;11.13;;
59607;SDS011;45426;44.726;10.390;2023-12-04T06:45:43;22.80;;;11.52;;
59607;SDS011;45426;44.726;10.390;2023-12-04T06:48:10;24.90;;;12.60;;
59607;SDS011;45426;44.726;10.390;2023-12-04T06:50:38;25.30;;;12.23;;
59607;SDS011;45426;44.726;10.390;2023-12-04T06:53:05;25.45;;;12.48;;
59607;SDS011;45426;44.726;10.390;2023-12-04T06:55:30;25.67;;;12.40;;
59607;SDS011;45426;44.726;10.390;2023-12-04T06:57:56;25.55;;;12.07;;
59607;SDS011;45426;44.726;10.390;2023-12-04T07:00:21;21.02;;;11.65;;
59607;SDS011;45426;44.726;10.390;2023-12-04T07:02:46;21.92;;;11.27;;
59607;SDS011;45426;44.726;10.390;2023-12-04T07:05:12;26.35;;;12.35;;
59607;SDS011;45426;44.726;10.390;2023-12-04T07:07:37;22.58;;;12.32;;
59607;SDS011;45426;44.726;10.390;2023-12-04T07:10:03;23.90;;;12.40;;
59607;SDS011;45426;44.726;10.390;2023-12-04T07:12:28;25.08;;;11.32;;
59607;SDS011;45426;44.726;10.390;2023-12-04T07:14:54;24.70;;;10.73;;
59607;SDS011;45426;44.726;10.390;2023-12-04T07:17:19;22.42;;;11.48;;
59607;SDS011;45426;44.726;10.390;2023-12-04T07:19:46;21.98;;;11.40;;
59607;SDS011;45426;44.726;10.390;2023-12-04T07:22:12;26.65;;;12.45;;
59607;SDS011;45426;44.726;10.390;2023-12-04T07:24:37;26.02;;;11.70;;
59607;SDS011;45426;44.726;10.390;2023-12-04T07:27:02;22.05;;;11.75;;
59607;SDS011;45426;44.726;10.390;2023-12-04T07:29:29;23.70;;;12.32;;
59607;SDS011;45426;44.726;10.390;2023-12-04T07:31:54;23.40;;;11.90;;
59607;SDS011;45426;44.726;10.390;2023-12-04T07:34:20;24.63;;;12.43;;
59607;SDS011;45426;44.726;10.390;2023-12-04T07:36:45;25.60;;;12.82;;
59607;SDS011;45426;44.726;10.390;2023-12-04T07:39:10;26.40;;;12.80;;
59607;SDS011;45426;44.726;10.390;2023-12-04T07:41:36;26.00;;;13.63;;
59607;SDS011;45426;44.726;10.390;2023-12-04T07:44:02;28.88;;;13.50;;
59607;SDS011;45426;44.726;10.390;2023-12-04T07:46:28;29.75;;;14.52;;
59607;SDS011;45426;44.726;10.390;2023-12-04T07:48:54;30.20;;;14.00;;
59607;SDS011;45426;44.726;10.390;2023-12-04T07:51:19;34.08;;;16.35;;
59607;SDS011;45426;44.726;10.390;2023-12-04T07:53:45;26.63;;;13.60;;
59607;SDS011;45426;44.726;10.390;2023-12-04T07:56:11;28.20;;;14.02;;
59607;SDS011;45426;44.726;10.390;2023-12-04T07:58:37;30.25;;;13.73;;
59607;SDS011;45426;44.726;10.390;2023-12-04T08:01:02;24.80;;;13.15;;
59607;SDS011;45426;44.726;10.390;2023-12-04T08:03:28;29.25;;;13.60;;
59607;SDS011;45426;44.726;10.390;2023-12-04T08:05:54;27.35;;;13.93;;
59607;SDS011;45426;44.726;10.390;2023-12-04T08:08:19;25.20;;;13.48;;
59607;SDS011;45426;44.726;10.390;2023-12-04T08:10:44;29.50;;;13.70;;
59607;SDS011;45426;44.726;10.390;2023-12-04T08:13:10;25.95;;;13.55;;
59607;SDS011;45426;44.726;10.390;2023-12-04T08:15:35;28.33;;;14.07;;
59607;SDS011;45426;44.726;10.390;2023-12-04T08:18:01;28.38;;;13.50;;
59607;SDS011;45426;44.726;10.390;2023-12-04T08:20:27;25.10;;;13.20;;
59607;SDS011;45426;44.726;10.390;2023-12-04T08:22:53;24.55;;;13.13;;
59607;SDS011;45426;44.726;10.390;2023-12-04T08:25:19;25.05;;;13.52;;
59607;SDS011;45426;44.726;10.390;2023-12-04T08:27:45;30.95;;;15.88;;
59607;SDS011;45426;44.726;10.390;2023-12-04T08:30:11;30.85;;;15.65;;
59607;SDS011;45426;44.726;10.390;2023-12-04T08:32:36;27.50;;;14.18;;
59607;SDS011;45426;44.726;10.390;2023-12-04T08:35:02;25.98;;;14.05;;
59607;SDS011;45426;44.726;10.390;2023-12-04T08:37:28;31.65;;;14.73;;
59607;SDS011;45426;44.726;10.390;2023-12-04T08:39:54;29.98;;;15.43;;
59607;SDS011;45426;44.726;10.390;2023-12-04T08:42:19;38.67;;;16.38;;
59607;SDS011;45426;44.726;10.390;2023-12-04T08:44:45;34.63;;;17.33;;
59607;SDS011;45426;44.726;10.390;2023-12-04T08:47:12;28.20;;;14.32;;
59607;SDS011;45426;44.726;10.390;2023-12-04T08:49:38;29.00;;;14.80;;
59607;SDS011;45426;44.726;10.390;2023-12-04T08:52:06;27.02;;;14.70;;
59607;SDS011;45426;44.726;10.390;2023-12-04T08:54:32;27.73;;;14.43;;
59607;SDS011;45426;44.726;10.390;2023-12-04T08:56:57;27.45;;;15.32;;
59607;SDS011;45426;44.726;10.390;2023-12-04T08:59:23;30.20;;;14.88;;
59607;SDS011;45426;44.726;10.390;2023-12-04T09:01:48;29.75;;;14.85;;
59607;SDS011;45426;44.726;10.390;2023-12-04T09:04:13;31.73;;;16.63;;
59607;SDS011;45426;44.726;10.390;2023-12-04T09:06:39;26.65;;;15.55;;
59607;SDS011;45426;44.726;10.390;2023-12-04T09:09:04;29.65;;;14.93;;
59607;SDS011;45426;44.726;10.390;2023-12-04T09:11:30;28.13;;;14.45;;
59607;SDS011;45426;44.726;10.390;2023-12-04T09:13:55;37.78;;;15.00;;
59607;SDS011;45426;44.726;10.390;2023-12-04T09:16:21;38.05;;;15.20;;
59607;SDS011;45426;44.726;10.390;2023-12-04T09:18:47;31.52;;;15.48;;
59607;SDS011;45426;44.726;10.390;2023-12-04T09:21:12;30.30;;;15.63;;
59607;SDS011;45426;44.726;10.390;2023-12-04T09:23:38;27.63;;;14.45;;
59607;SDS011;45426;44.726;10.390;2023-12-04T09:26:03;28.20;;;14.20;;
59607;SDS011;45426;44.726;10.390;2023-12-04T09:28:29;31.48;;;16.58;;
59607;SDS011;45426;44.726;10.390;2023-12-04T09:30:54;31.30;;;15.45;;
59607;SDS011;45426;44.726;10.390;2023-12-04T09:33:20;26.50;;;15.35;;
59607;SDS011;45426;44.726;10.390;2023-12-04T09:35:45;27.98;;;14.95;;
59607;SDS011;45426;44.726;10.390;2023-12-04T09:38:11;30.38;;;15.38;;
59607;SDS011;45426;44.726;10.390;2023-12-04T09:40:36;31.95;;;15.52;;
59607;SDS011;45426;44.726;10.390;2023-12-04T09:43:02;29.67;;;15.25;;
59607;SDS011;45426;44.726;10.390;2023-12-04T09:45:29;27.15;;;15.23;;
59607;SDS011;45426;44.726;10.390;2023-12-04T09:47:58;30.77;;;15.68;;
59607;SDS011;45426;44.726;10.390;2023-12-04T09:50:23;37.20;;;18.45;;
59607;SDS011;45426;44.726;10.390;2023-12-04T09:52:49;42.88;;;22.10;;
59607;SDS011;45426;44.726;10.390;2023-12-04T09:55:16;43.60;;;22.15;;
59607;SDS011;45426;44.726;10.390;2023-12-04T09:57:42;35.28;;;17.05;;
59607;SDS011;45426;44.726;10.390;2023-12-04T10:00:10;35.97;;;22.90;;
59607;SDS011;45426;44.726;10.390;2023-12-04T10:02:38;38.30;;;25.65;;
59607;SDS011;45426;44.726;10.390;2023-12-04T10:05:05;35.47;;;17.65;;
59607;SDS011;45426;44.726;10.390;2023-12-04T10:07:31;48.60;;;37.05;;
59607;SDS011;45426;44.726;10.390;2023-12-04T10:09:56;36.97;;;21.00;;
59607;SDS011;45426;44.726;10.390;2023-12-04T10:12:22;31.98;;;17.80;;
59607;SDS011;45426;44.726;10.390;2023-12-04T10:15:06;31.30;;;17.42;;
59607;SDS011;45426;44.726;10.390;2023-12-04T10:17:34;30.05;;;16.35;;
59607;SDS011;45426;44.726;10.390;2023-12-04T10:20:13;30.98;;;17.95;;
59607;SDS011;45426;44.726;10.390;2023-12-04T10:22:53;32.00;;;17.02;;
59607;SDS011;45426;44.726;10.390;2023-12-04T10:25:20;26.92;;;16.50;;
59607;SDS011;45426;44.726;10.390;2023-12-04T10:27:47;27.33;;;15.43;;
59607;SDS011;45426;44.726;10.390;2023-12-04T10:30:26;27.35;;;14.75;;
59607;SDS011;45426;44.726;10.390;2023-12-04T10:32:56;31.25;;;16.50;;
59607;SDS011;45426;44.726;10.390;2023-12-04T10:35:25;28.48;;;15.68;;
59607;SDS011;45426;44.726;10.390;2023-12-04T10:37:53;28.17;;;16.27;;
59607;SDS011;45426;44.726;10.390;2023-12-04T10:40:23;28.77;;;15.48;;
59607;SDS011;45426;44.726;10.390;2023-12-04T10:45:36;27.75;;;15.88;;
59607;SDS011;45426;44.726;10.390;2023-12-04T10:48:04;29.23;;;16.08;;
59607;SDS011;45426;44.726;10.390;2023-12-04T10:50:40;32.55;;;16.60;;
59607;SDS011;45426;44.726;10.390;2023-12-04T10:53:07;30.10;;;16.80;;
59607;SDS011;45426;44.726;10.390;2023-12-04T10:55:34;35.45;;;20.65;;
59607;SDS011;45426;44.726;10.390;2023-12-04T10:58:07;29.83;;;17.10;;
59607;SDS011;45426;44.726;10.390;2023-12-04T11:00:35;29.60;;;16.00;;
59607;SDS011;45426;44.726;10.390;2023-12-04T11:03:08;29.85;;;15.23;;
59607;SDS011;45426;44.726;10.390;2023-12-04T11:05:37;29.88;;;15.57;;
59607;SDS011;45426;44.726;10.390;2023-12-04T11:08:03;30.77;;;15.30;;
59607;SDS011;45426;44.726;10.390;2023-12-04T11:10:31;30.17;;;14.65;;
59607;SDS011;45426;44.726;10.390;2023-12-04T11:13:32;28.63;;;14.82;;
59607;SDS011;45426;44.726;10.390;2023-12-04T11:15:58;26.65;;;14.43;;
59607;SDS011;45426;44.726;10.390;2023-12-04T11:18:26;27.75;;;13.68;;
59607;SDS011;45426;44.726;10.390;2023-12-04T11:20:56;29.98;;;15.32;;
59607;SDS011;45426;44.726;10.390;2023-12-04T11:23:24;29.45;;;14.23;;
59607;SDS011;45426;44.726;10.390;2023-12-04T11:25:50;33.30;;;18.98;;
59607;SDS011;45426;44.726;10.390;2023-12-04T11:28:16;27.80;;;14.98;;
59607;SDS011;45426;44.726;10.390;2023-12-04T11:30:43;27.98;;;14.88;;
59607;SDS011;45426;44.726;10.390;2023-12-04T11:33:10;89.88;;;31.73;;
59607;SDS011;45426;44.726;10.390;2023-12-04T11:35:37;101.07;;;32.20;;
59607;SDS011;45426;44.726;10.390;2023-12-04T11:38:04;51.53;;;21.23;;
59607;SDS011;45426;44.726;10.390;2023-12-04T11:40:32;35.70;;;17.10;;
59607;SDS011;45426;44.726;10.390;2023-12-04T11:42:57;34.63;;;17.85;;
59607;SDS011;45426;44.726;10.390;2023-12-04T11:45:23;131.85;;;46.85;;
59607;SDS011;45426;44.726;10.390;2023-12-04T11:50:14;32.08;;;17.02;;
59607;SDS011;45426;44.726;10.390;2023-12-04T11:52:40;26.20;;;13.73;;
59607;SDS011;45426;44.726;10.390;2023-12-04T11:55:05;25.60;;;13.80;;
59607;SDS011;45426;44.726;10.390;2023-12-04T11:57:50;24.85;;;13.68;;
59607;SDS011;45426;44.726;10.390;2023-12-04T12:00:19;28.05;;;15.38;;
59607;SDS011;45426;44.726;10.390;2023-12-04T12:02:47;24.83;;;14.25;;
59607;SDS011;45426;44.726;10.390;2023-12-04T12:05:12;27.15;;;15.07;;
59607;SDS011;45426;44.726;10.390;2023-12-04T12:07:38;31.50;;;15.65;;
59607;SDS011;45426;44.726;10.390;2023-12-04T12:10:03;25.67;;;14.90;;
59607;SDS011;45426;44.726;10.390;2023-12-04T12:12:29;31.65;;;17.70;;
59607;SDS011;45426;44.726;10.390;2023-12-04T12:14:56;36.15;;;15.95;;
59607;SDS011;45426;44.726;10.390;2023-12-04T12:17:22;29.60;;;15.75;;
59607;SDS011;45426;44.726;10.390;2023-12-04T12:19:47;26.95;;;15.57;;
59607;SDS011;45426;44.726;10.390;2023-12-04T12:22:12;30.58;;;15.82;;
59607;SDS011;45426;44.726;10.390;2023-12-04T12:24:39;37.40;;;15.80;;
59607;SDS011;45426;44.726;10.390;2023-12-04T12:27:04;31.20;;;16.90;;
59607;SDS011;45426;44.726;10.390;2023-12-04T12:29:30;28.80;;;15.68;;
59607;SDS011;45426;44.726;10.390;2023-12-04T12:31:56;27.13;;;14.82;;
59607;SDS011;45426;44.726;10.390;2023-12-04T12:34:21;28.10;;;15.40;;
59607;SDS011;45426;44.726;10.390;2023-12-04T12:36:47;25.60;;;14.60;;
59607;SDS011;45426;44.726;10.390;2023-12-04T12:39:12;27.40;;;14.73;;
59607;SDS011;45426;44.726;10.390;2023-12-04T12:41:45;27.27;;;15.20;;
59607;SDS011;45426;44.726;10.390;2023-12-04T12:44:12;26.15;;;14.80;;
59607;SDS011;45426;44.726;10.390;2023-12-04T12:46:39;29.83;;;15.25;;
59607;SDS011;45426;44.726;10.390;2023-12-04T12:49:05;26.75;;;14.90;;
59607;SDS011;45426;44.726;10.390;2023-12-04T12:51:31;29.10;;;15.13;;
59607;SDS011;45426;44.726;10.390;2023-12-04T12:53:57;27.02;;;14.20;;
59607;SDS011;45426;44.726;10.390;2023-12-04T12:56:24;29.15;;;14.88;;
59607;SDS011;45426;44.726;10.390;2023-12-04T12:58:50;27.77;;;14.40;;
59607;SDS011;45426;44.726;10.390;2023-12-04T13:01:16;26.90;;;15.40;;
59607;SDS011;45426;44.726;10.390;2023-12-04T13:03:44;28.88;;;15.52;;
59607;SDS011;45426;44.726;10.390;2023-12-04T13:06:11;26.88;;;15.55;;
59607;SDS011;45426;44.726;10.390;2023-12-04T13:08:36;26.80;;;14.82;;
59607;SDS011;45426;44.726;10.390;2023-12-04T13:11:02;29.38;;;15.77;;
59607;SDS011;45426;44.726;10.390;2023-12-04T13:13:29;27.88;;;16.42;;
59607;SDS011;45426;44.726;10.390;2023-12-04T13:15:55;28.67;;;15.13;;
59607;SDS011;45426;44.726;10.390;2023-12-04T13:18:20;30.17;;;16.35;;
59607;SDS011;45426;44.726;10.390;2023-12-04T13:20:46;30.15;;;15.52;;
59607;SDS011;45426;44.726;10.390;2023-12-04T13:23:11;28.60;;;14.52;;
59607;SDS011;45426;44.726;10.390;2023-12-04T13:25:36;30.08;;;15.65;;
59607;SDS011;45426;44.726;10.390;2023-12-04T13:28:02;30.67;;;16.48;;
59607;SDS011;45426;44.726;10.390;2023-12-04T13:30:27;30.92;;;15.82;;
59607;SDS011;45426;44.726;10.390;2023-12-04T13:32:53;30.48;;;16.20;;
59607;SDS011;45426;44.726;10.390;2023-12-04T13:35:18;29.63;;;15.48;;
59607;SDS011;45426;44.726;10.390;2023-12-04T13:37:44;26.40;;;15.55;;
59607;SDS011;45426;44.726;10.390;2023-12-04T13:40:10;26.45;;;15.68;;
59607;SDS011;45426;44.726;10.390;2023-12-04T13:42:41;31.75;;;16.38;;
59607;SDS011;45426;44.726;10.390;2023-12-04T13:45:25;27.70;;;15.45;;
59607;SDS011;45426;44.726;10.390;2023-12-04T13:47:50;27.83;;;15.60;;
59607;SDS011;45426;44.726;10.390;2023-12-04T13:50:17;28.05;;;15.43;;
59607;SDS011;45426;44.726;10.390;2023-12-04T13:52:42;29.33;;;14.93;;
59607;SDS011;45426;44.726;10.390;2023-12-04T13:55:08;28.23;;;15.93;;
59607;SDS011;45426;44.726;10.390;2023-12-04T13:58:00;28.50;;;15.38;;
59607;SDS011;45426;44.726;10.390;2023-12-04T14:00:25;28.52;;;15.48;;
59607;SDS011;45426;44.726;10.390;2023-12-04T14:02:51;27.95;;;15.30;;
59607;SDS011;45426;44.726;10.390;2023-12-04T14:05:28;26.05;;;15.00;;
59607;SDS011;45426;44.726;10.390;2023-12-04T14:07:54;28.13;;;15.27;;
59607;SDS011;45426;44.726;10.390;2023-12-04T14:10:20;28.67;;;16.13;;
59607;SDS011;45426;44.726;10.390;2023-12-04T14:12:45;26.75;;;14.63;;